aviador You're here:

ZUCK Decoded Metar

CHONGQING in CHINA
Report Time2017-12-16 10:00:00
UTC Time2017-12-16 11:00:12
Flight Rules mvfr MVFR
Wind090° at 6 kt
W.Decomp.*RWY 02: 2.0 kt HW 5.7 kt RCW
W.Rank090° ranks 10
Current wind is above 090° avg. (4.4)
Visibility7000 m
Phenomena:N/A
Clouds:Scattered 040 Hf
Expected CloudBase > 2,000 ft AGL from Temp-Dew spread
CeilingNone
Temp10°C (ISA -3)
Dew Point05°C (71% RH)
AAT6.7°C
QNH1032 hPa
Density Alt312 ft
Elevation1,152 ft
Report Wrong Elevation
Raw Report
METAR ZUCK 161000Z 09003MPS 7000 SCT040 10/05 Q1032 NOSIG=

Extra information for ZUCK:More info

Metar Taf Metar & Taf Last 4 Metars F.Rules Stats Wind Profile Meteogram Temp Stats Airport Information Weather charts Add Link Nearby VenuesMetar ALERT Operation Metar Decoded Social comments